Time;durP1;ratioP1;P1;durP2;ratioP2;P2;SDS_P1;SDS_P2;PMS_P1;PMS_P2;Temp;Humidity;BMP_temperature;BMP_pressure;BME280_temperature;BME280_humidity;BME280_pressure;Samples;Min_cycle;Max_cycle;Signal;HPM_P1;HPM_P2
2022/08/30 00:01:24;;;;;;;45.03;6.67;;;;;;;-143.84;41.42;45003.38;5034967;28;20513;-86
2022/08/30 00:03:54;;;;;;;45.27;5.93;;;;;;;-143.84;42.01;45049.06;5033864;28;20542;-86
2022/08/30 00:06:24;;;;;;;39.40;6.07;;;;;;;-143.84;42.01;44984.31;5033707;28;20564;-86
2022/08/30 00:08:51;;;;;;;36.57;6.80;;;;;;;-143.84;42.15;45033.84;5033553;28;20427;-86
2022/08/30 00:11:21;;;;;;;58.60;8.57;;;;;;;-143.84;42.76;45009.09;5033680;28;20442;-87
2022/08/30 00:13:51;;;;;;;36.03;6.00;;;;;;;-143.84;42.59;45022.41;5034762;28;20439;-86
2022/08/30 00:16:20;;;;;;;37.97;5.60;;;;;;;-143.84;42.32;44988.13;5037204;28;20442;-86
2022/08/30 00:18:47;;;;;;;47.73;6.87;;;;;;;-143.84;42.47;44988.13;5034843;28;20492;-86
2022/08/30 00:21:16;;;;;;;36.97;6.90;;;;;;;-143.84;42.20;45009.09;5035878;28;20435;-85
2022/08/30 00:23:44;;;;;;;22.27;5.53;;;;;;;-143.84;42.41;44999.56;5033882;28;20443;-84
2022/08/30 00:26:11;;;;;;;40.57;6.33;;;;;;;-143.84;42.17;44999.56;5034096;28;20437;-84
2022/08/30 00:28:39;;;;;;;27.60;6.13;;;;;;;-143.84;42.42;45022.41;5033778;28;20415;-84
2022/08/30 00:31:07;;;;;;;40.80;6.33;;;;;;;-143.84;42.59;45005.28;5033735;28;20443;-84
2022/08/30 00:33:35;;;;;;;30.20;6.47;;;;;;;-143.84;42.62;45005.28;5033593;28;20430;-84
2022/08/30 00:36:02;;;;;;;32.33;6.33;;;;;;;-143.84;42.83;45018.59;5033385;28;20431;-84
2022/08/30 00:38:31;;;;;;;36.40;6.47;;;;;;;-143.84;42.82;45037.66;5033082;28;20441;-84
2022/08/30 00:40:58;;;;;;;45.73;6.80;;;;;;;-143.84;42.76;44995.75;5033849;28;20435;-84
2022/08/30 00:43:28;;;;;;;36.30;6.00;;;;;;;-143.84;42.91;45022.41;5033207;28;20438;-84
2022/08/30 00:45:56;;;;;;;35.90;6.33;;;;;;;-143.84;43.09;45005.28;5032702;28;20850;-84
2022/08/30 00:48:23;;;;;;;28.10;6.30;;;;;;;-143.84;43.18;44999.56;5033262;28;20434;-84
2022/08/30 00:50:55;;;;;;;34.53;6.07;;;;;;;-143.84;42.85;45030.03;5033323;28;20501;-84
2022/08/30 00:53:26;;;;;;;27.47;6.27;;;;;;;-143.84;42.66;45018.59;5033304;28;20431;-85
2022/08/30 00:55:56;;;;;;;39.53;7.30;;;;;;;-143.84;42.57;45010.97;5035043;28;20485;-86
2022/08/30 00:58:29;;;;;;;36.70;5.97;;;;;;;-143.84;42.08;44986.22;5034933;28;20435;-86
2022/08/30 01:01:00;;;;;;;43.40;5.83;;;;;;;-143.84;42.04;45009.09;5035242;28;20984;-86
2022/08/30 01:03:27;;;;;;;27.90;6.80;;;;;;;-143.84;42.07;45022.41;5035117;28;20434;-86
2022/08/30 01:05:57;;;;;;;27.37;5.50;;;;;;;-143.84;42.14;45024.31;5035873;28;20900;-86
2022/08/30 01:08:24;;;;;;;42.37;5.97;;;;;;;-143.84;42.25;45016.69;5036188;28;20493;-87
2022/08/30 01:10:56;;;;;;;35.07;5.87;;;;;;;-143.84;43.15;45022.41;5033496;28;20434;-86
2022/08/30 01:13:25;;;;;;;41.93;6.57;;;;;;;-143.84;43.56;44980.53;5031971;28;20976;-86
2022/08/30 01:15:53;;;;;;;47.40;5.93;;;;;;;-143.84;44.04;45020.50;5033544;28;20434;-86
2022/08/30 01:18:21;;;;;;;38.20;6.23;;;;;;;-143.84;44.64;45026.22;5033636;28;20443;-86
2022/08/30 01:20:54;;;;;;;37.13;6.53;;;;;;;-143.84;44.85;44991.94;5035496;28;20478;-86
2022/08/30 01:23:25;;;;;;;48.77;6.73;;;;;;;-143.84;44.75;45024.31;5034331;28;20868;-86
2022/08/30 01:25:54;;;;;;;26.70;6.37;;;;;;;-143.84;44.64;45001.47;5034460;28;20501;-86
2022/08/30 01:28:23;;;;;;;30.77;6.63;;;;;;;-143.84;45.02;45016.69;5037159;28;20435;-86
2022/08/30 01:30:51;;;;;;;28.83;6.00;;;;;;;-143.84;45.13;45012.88;5038127;28;20443;-86
2022/08/30 01:33:19;;;;;;;45.73;5.90;;;;;;;-143.84;45.58;45016.69;5034528;28;20530;-86
2022/08/30 01:35:52;;;;;;;32.73;5.47;;;;;;;-143.84;46.09;45028.13;5033304;28;20433;-86
2022/08/30 01:38:22;;;;;;;24.00;5.50;;;;;;;-143.84;47.15;45010.97;5034587;28;20431;-86
2022/08/30 01:40:51;;;;;;;39.57;5.50;;;;;;;-143.84;47.82;45020.50;5033421;28;20573;-85
2022/08/30 01:43:19;;;;;;;38.73;5.33;;;;;;;-143.84;48.52;45043.34;5032532;28;20435;-85
2022/08/30 01:45:47;;;;;;;31.07;5.17;;;;;;;-143.84;48.63;45028.13;5032401;28;20508;-85
2022/08/30 01:48:15;;;;;;;30.40;5.83;;;;;;;-143.84;49.37;45020.50;5033885;28;20500;-85
2022/08/30 01:50:42;;;;;;;46.70;6.73;;;;;;;-143.84;49.74;45018.59;5032792;28;20431;-85
2022/08/30 01:53:09;;;;;;;25.37;6.03;;;;;;;-143.84;50.30;45005.28;5032533;28;20979;-85
2022/08/30 01:55:37;;;;;;;28.80;5.73;;;;;;;-143.84;50.81;45016.69;5032824;28;20427;-78
2022/08/30 01:58:06;;;;;;;26.93;5.03;;;;;;;-143.84;51.13;45022.41;5029728;28;20453;-78
2022/08/30 02:00:33;;;;;;;22.63;5.70;;;;;;;-143.84;51.59;45003.38;5029431;28;20478;-78
2022/08/30 02:03:01;;;;;;;30.17;6.00;;;;;;;-143.84;51.82;45031.94;5030166;28;20802;-78
2022/08/30 02:05:28;;;;;;;20.40;6.87;;;;;;;-143.84;51.61;45012.88;5029397;28;20430;-78
2022/08/30 02:07:55;;;;;;;30.90;6.10;;;;;;;-143.84;51.63;45043.34;5029715;28;20517;-77
2022/08/30 02:10:23;;;;;;;19.13;5.00;;;;;;;-143.84;51.56;45014.78;5029519;28;20443;-77
2022/08/30 02:12:50;;;;;;;28.00;5.23;;;;;;;-143.84;51.58;45018.59;5029884;28;20443;-77
2022/08/30 02:15:19;;;;;;;39.43;5.60;;;;;;;-143.84;51.25;45024.31;5029709;28;20442;-77
2022/08/30 02:17:46;;;;;;;24.03;4.83;;;;;;;-143.84;51.10;45016.69;5029357;28;20442;-77
2022/08/30 02:20:13;;;;;;;25.37;5.07;;;;;;;-143.84;51.49;45010.97;5029285;28;20478;-77
2022/08/30 02:22:41;;;;;;;32.27;5.13;;;;;;;-143.84;51.24;45010.97;5029472;28;20454;-77
2022/08/30 02:25:08;;;;;;;23.73;5.80;;;;;;;-143.84;51.51;45010.97;5029379;28;20928;-77
2022/08/30 02:27:36;;;;;;;24.90;5.47;;;;;;;-143.84;51.28;45005.28;5029736;28;20438;-77
2022/08/30 02:30:05;;;;;;;31.20;5.17;;;;;;;-143.84;51.56;45010.97;5029071;28;20983;-75
2022/08/30 02:32:34;;;;;;;30.70;5.80;;;;;;;-143.84;51.67;45026.22;5028560;28;20447;-74
2022/08/30 02:35:01;;;;;;;23.40;6.80;;;;;;;-143.84;51.48;45010.97;5028815;28;20447;-74
2022/08/30 02:37:28;;;;;;;25.03;5.10;;;;;;;-143.84;51.77;45012.88;5029246;28;20447;-75
2022/08/30 02:39:55;;;;;;;26.53;7.00;;;;;;;-143.84;52.04;45026.22;5028720;28;20490;-75
2022/08/30 02:42:22;;;;;;;28.13;5.83;;;;;;;-143.84;52.38;45022.41;5029023;28;21293;-74
2022/08/30 02:44:50;;;;;;;32.93;6.20;;;;;;;-143.84;52.24;45022.41;5028774;28;20450;-74
2022/08/30 02:47:17;;;;;;;29.93;5.23;;;;;;;-143.84;52.84;45033.84;5029100;28;20450;-75
2022/08/30 02:49:45;;;;;;;27.30;6.00;;;;;;;-143.84;53.25;45035.75;5028839;28;20569;-74
2022/08/30 02:52:13;;;;;;;26.60;6.47;;;;;;;-143.84;53.69;45012.88;5028624;28;20501;-74
2022/08/30 02:54:40;;;;;;;40.00;6.47;;;;;;;-143.84;54.54;44991.94;5028519;28;20447;-74
2022/08/30 02:57:07;;;;;;;27.27;5.70;;;;;;;-143.84;54.92;45041.44;5028796;28;21015;-75
2022/08/30 02:59:40;;;;;;;20.97;5.57;;;;;;;-143.84;55.30;45039.53;5028108;28;20502;-74
2022/08/30 03:02:07;;;;;;;27.33;5.10;;;;;;;-143.84;55.23;45047.16;5028498;28;20547;-74
2022/08/30 03:04:34;;;;;;;22.07;5.27;;;;;;;-143.84;55.34;45018.59;5028595;28;20438;-74
2022/08/30 03:07:03;;;;;;;32.03;6.40;;;;;;;-143.84;55.06;45026.22;5028485;28;21154;-74
2022/08/30 03:09:31;;;;;;;37.17;6.60;;;;;;;-143.84;54.84;45030.03;5030430;28;20492;-75
2022/08/30 03:11:58;;;;;;;25.00;5.87;;;;;;;-143.84;54.93;45020.50;5031929;28;21109;-74
2022/08/30 03:14:26;;;;;;;22.00;5.77;;;;;;;-143.84;54.07;45062.41;5031722;28;20450;-74
2022/08/30 03:16:54;;;;;;;27.83;5.57;;;;;;;-143.84;53.63;45020.50;5031893;28;20530;-74
2022/08/30 03:19:22;;;;;;;22.43;5.17;;;;;;;-143.84;53.41;45003.38;5031961;28;20438;-74
2022/08/30 03:21:50;;;;;;;27.10;5.80;;;;;;;-143.84;52.81;45035.75;5031956;28;20441;-74
2022/08/30 03:24:18;;;;;;;18.93;5.10;;;;;;;-143.84;53.49;45035.75;5031726;28;20437;-74
2022/08/30 03:26:45;;;;;;;32.07;6.00;;;;;;;-143.84;53.46;45022.41;5031995;28;20443;-74
2022/08/30 03:29:13;;;;;;;26.20;5.07;;;;;;;-143.84;53.25;45030.03;5031627;28;20451;-74
2022/08/30 03:31:40;;;;;;;24.03;5.37;;;;;;;-143.84;53.28;45007.19;5031466;28;20439;-74
2022/08/30 03:34:09;;;;;;;25.10;5.40;;;;;;;-143.84;53.59;45024.31;5031851;28;20552;-73
2022/08/30 03:36:37;;;;;;;31.37;6.10;;;;;;;-143.84;54.37;45026.22;5031606;28;20445;-74
2022/08/30 03:39:04;;;;;;;27.83;5.13;;;;;;;-143.84;55.43;45039.53;5031571;28;21315;-74
2022/08/30 03:41:33;;;;;;;22.23;6.00;;;;;;;-143.84;56.24;44999.56;5031056;28;20556;-74
2022/08/30 03:44:01;;;;;;;24.03;5.80;;;;;;;-143.84;56.25;45041.44;5031577;28;20844;-75
2022/08/30 03:46:29;;;;;;;49.67;6.50;;;;;;;-143.84;57.11;45031.94;5030302;28;20533;-75
2022/08/30 03:48:56;;;;;;;36.67;7.47;;;;;;;-143.84;60.15;45026.22;5031096;28;20493;-74
2022/08/30 03:51:23;;;;;;;33.17;7.40;;;;;;;-143.84;62.81;44995.75;5031797;28;20470;-75
2022/08/30 03:53:50;;;;;;;17.23;5.70;;;;;;;-143.84;63.52;45039.53;5051532;28;20433;-74
2022/08/30 03:56:19;;;;;;;30.03;6.30;;;;;;;-143.84;64.25;45041.44;5050943;28;20445;-74
2022/08/30 03:58:48;;;;;;;26.90;6.53;;;;;;;-143.84;64.26;45018.59;5050876;28;20959;-74
2022/08/30 04:01:16;;;;;;;36.40;7.00;;;;;;;-143.84;65.45;45026.22;5050901;28;20476;-77
2022/08/30 04:03:43;;;;;;;27.87;6.83;;;;;;;-143.84;67.16;45022.41;5050480;28;20449;-74
2022/08/30 04:06:11;;;;;;;29.93;6.37;;;;;;;-143.84;67.81;45030.03;5050403;28;20493;-74
2022/08/30 04:08:39;;;;;;;25.30;6.80;;;;;;;-143.84;68.11;45041.44;5050849;28;20487;-74
2022/08/30 04:11:07;;;;;;;19.40;7.50;;;;;;;-143.84;69.98;45018.59;5050380;28;20454;-75
2022/08/30 04:13:34;;;;;;;17.20;6.73;;;;;;;-143.84;71.35;45022.41;5050550;28;20441;-72
2022/08/30 04:16:03;;;;;;;31.80;6.57;;;;;;;-143.84;71.74;45037.66;5050209;28;20943;-74
2022/08/30 04:18:30;;;;;;;28.10;7.27;;;;;;;-143.84;72.51;45028.13;5050251;28;20442;-73
2022/08/30 04:20:58;;;;;;;26.37;6.93;;;;;;;-143.84;72.67;45031.94;5050371;28;20481;-83
2022/08/30 04:23:27;;;;;;;29.10;6.70;;;;;;;-143.84;72.56;45031.94;5053389;28;20442;-83
2022/08/30 04:25:55;;;;;;;41.73;7.93;;;;;;;-143.84;73.05;45001.47;5053299;28;20794;-83
2022/08/30 04:28:23;;;;;;;30.50;7.17;;;;;;;-143.84;73.14;45020.50;5037200;28;20435;-74
2022/08/30 04:30:50;;;;;;;24.73;7.73;;;;;;;-143.84;72.93;45041.44;5030416;28;20504;-74
2022/08/30 04:33:19;;;;;;;41.17;7.50;;;;;;;-143.84;72.64;45014.78;5030847;28;20424;-74
2022/08/30 04:35:48;;;;;;;39.57;7.97;;;;;;;-143.84;73.41;45001.47;5031544;28;20438;-79
2022/08/30 04:38:16;;;;;;;35.23;7.87;;;;;;;-143.84;73.14;44997.66;5032823;28;20819;-80
2022/08/30 04:40:47;;;;;;;35.20;6.53;;;;;;;-143.84;72.77;45010.97;5032942;28;20813;-80
2022/08/30 04:43:14;;;;;;;31.93;7.50;;;;;;;-143.84;72.07;45016.69;5032689;28;20450;-80
2022/08/30 04:45:42;;;;;;;40.97;9.00;;;;;;;-143.84;72.19;45024.31;5032472;28;20791;-79
2022/08/30 04:48:10;;;;;;;44.83;8.10;;;;;;;-143.84;72.78;45005.28;5033178;28;20427;-79
2022/08/30 04:50:39;;;;;;;46.80;7.27;;;;;;;-143.84;72.75;45030.03;5031898;28;20427;-79
2022/08/30 04:53:06;;;;;;;35.20;7.37;;;;;;;-143.84;71.77;45020.50;5031784;28;20446;-80
2022/08/30 04:55:34;;;;;;;31.30;7.63;;;;;;;-143.84;71.27;45009.09;5032228;28;20443;-79
2022/08/30 04:58:01;;;;;;;27.23;6.67;;;;;;;-143.84;70.06;45003.38;5032264;28;20438;-79
2022/08/30 05:00:28;;;;;;;32.90;6.53;;;;;;;-143.84;68.95;44959.56;5031868;28;20912;-79
2022/08/30 05:02:55;;;;;;;35.83;8.70;;;;;;;-143.84;67.67;44997.66;5031894;28;20450;-80
2022/08/30 05:05:40;;;;;;;45.13;7.93;;;;;;;-143.84;67.07;44944.34;5032203;28;20454;-81
2022/08/30 05:08:11;;;;;;;31.33;6.53;;;;;;;-143.84;66.41;44961.47;5033540;28;20433;-80
2022/08/30 05:10:40;;;;;;;40.90;7.07;;;;;;;-143.84;65.73;44942.44;5032441;28;20435;-79
2022/08/30 05:13:07;;;;;;;31.83;6.53;;;;;;;-143.84;64.94;44931.00;5047438;28;20484;-80
2022/08/30 05:15:35;;;;;;;29.47;6.33;;;;;;;-143.84;64.11;44950.06;5051936;28;20411;-84
2022/08/30 05:18:02;;;;;;;44.10;6.57;;;;;;;-143.84;63.58;44921.50;5052188;28;20442;-84
2022/08/30 05:20:29;;;;;;;33.97;6.90;;;;;;;-143.84;62.64;44931.00;5052108;28;21041;-83
2022/08/30 05:22:57;;;;;;;44.50;5.60;;;;;;;-143.84;61.57;44902.44;5052602;28;20434;-84
2022/08/30 05:25:28;;;;;;;33.93;7.20;;;;;;;-143.84;60.16;44892.94;5051393;28;20433;-83
2022/08/30 05:27:56;;;;;;;39.50;7.50;;;;;;;-143.84;58.96;44904.34;5051813;28;21283;-84
2022/08/30 05:30:25;;;;;;;32.10;6.17;;;;;;;-143.84;57.19;44921.50;5051829;28;20503;-84
2022/08/30 05:32:52;;;;;;;37.40;5.90;;;;;;;-143.84;56.64;44908.16;5050679;28;20491;-83
2022/08/30 05:35:20;;;;;;;45.67;8.37;;;;;;;-143.84;56.47;44904.34;5049847;28;20438;-82
2022/08/30 05:37:48;;;;;;;29.87;5.40;;;;;;;-143.84;55.48;44881.50;5046865;28;20438;-84
2022/08/30 05:40:16;;;;;;;39.57;5.30;;;;;;;-143.84;54.35;44896.75;5047521;28;20434;-84
2022/08/30 05:42:46;;;;;;;43.57;6.53;;;;;;;-143.84;52.53;44883.41;5049735;28;20437;-84
2022/08/30 05:45:14;;;;;;;22.23;6.03;;;;;;;-143.84;52.06;44923.41;5050427;28;21133;-84
2022/08/30 05:47:41;;;;;;;40.03;6.83;;;;;;;-143.84;51.41;44873.88;5050264;28;20430;-84
2022/08/30 05:50:10;;;;;;;32.67;6.77;;;;;;;-143.84;51.02;44877.69;5051411;28;20429;-84
2022/08/30 05:52:38;;;;;;;29.97;5.23;;;;;;;-143.84;50.90;44891.03;5050858;28;20437;-84
2022/08/30 05:55:06;;;;;;;31.60;5.47;;;;;;;-143.84;50.41;44875.78;5051310;28;20874;-85
2022/08/30 05:57:34;;;;;;;43.10;6.53;;;;;;;-143.84;50.29;44883.41;5051345;28;20507;-84
2022/08/30 06:00:07;;;;;;;29.17;6.70;;;;;;;-143.84;49.00;44873.88;5051075;28;20869;-84
2022/08/30 06:02:34;;;;;;;27.60;6.10;;;;;;;-143.84;49.65;44864.38;5051371;28;20441;-84
2022/08/30 06:05:03;;;;;;;33.03;6.23;;;;;;;-143.84;48.97;44864.38;5051333;28;20434;-85
2022/08/30 06:07:30;;;;;;;44.63;5.70;;;;;;;-143.84;47.86;44866.28;5050591;28;20528;-85
2022/08/30 06:09:57;;;;;;;30.83;6.93;;;;;;;-143.84;48.83;44873.88;5051126;28;20429;-84
2022/08/30 06:12:24;;;;;;;45.70;6.60;;;;;;;-143.84;49.82;44854.84;5050872;28;20438;-84
2022/08/30 06:14:52;;;;;;;25.67;6.23;;;;;;;-143.84;48.03;44864.38;5050735;28;20449;-84
2022/08/30 06:17:20;;;;;;;28.23;5.67;;;;;;;-143.84;46.47;44873.88;5050617;28;20441;-85
2022/08/30 06:19:48;;;;;;;52.97;6.57;;;;;;;-143.84;47.69;44847.22;5050387;28;20446;-84
2022/08/30 06:22:15;;;;;;;28.10;5.90;;;;;;;-143.84;47.86;44852.94;5050575;28;20465;-84
2022/08/30 06:24:43;;;;;;;30.53;6.20;;;;;;;-143.84;46.98;44866.28;5050431;28;20437;-84
2022/08/30 06:27:10;;;;;;;40.63;5.00;;;;;;;-143.84;47.34;44854.84;5050743;28;21171;-85
2022/08/30 06:29:37;;;;;;;32.07;6.60;;;;;;;-143.84;45.89;44849.13;5051115;28;20461;-84
2022/08/30 06:32:05;;;;;;;29.90;5.83;;;;;;;-143.84;46.36;44852.94;5050977;28;20868;-84
2022/08/30 06:34:33;;;;;;;29.13;6.63;;;;;;;-143.84;46.17;44835.81;5050858;28;20434;-85
2022/08/30 06:37:01;;;;;;;26.30;5.70;;;;;;;-143.84;45.75;44873.88;5050581;28;20495;-84
2022/08/30 06:39:28;;;;;;;25.77;4.93;;;;;;;-143.84;45.78;44851.03;5050659;28;20449;-84
2022/08/30 06:41:55;;;;;;;31.90;5.97;;;;;;;-143.84;45.40;44845.31;5050628;28;20999;-84
2022/08/30 06:44:22;;;;;;;23.33;5.33;;;;;;;-143.84;45.07;44835.81;5052580;28;20449;-84
2022/08/30 06:46:49;;;;;;;31.47;5.33;;;;;;;-143.84;45.04;44809.16;5054541;28;20433;-84
2022/08/30 06:49:17;;;;;;;24.50;5.60;;;;;;;-143.84;45.15;44832.00;5054628;28;20441;-85
2022/08/30 06:51:46;;;;;;;25.27;5.00;;;;;;;-143.84;45.44;44839.63;5054890;28;20507;-85
2022/08/30 06:54:13;;;;;;;26.37;5.47;;;;;;;-143.84;44.01;44847.22;5054649;28;20511;-84
2022/08/30 06:56:41;;;;;;;34.27;6.20;;;;;;;-143.84;43.38;44820.56;5054399;28;20425;-85
2022/08/30 06:59:09;;;;;;;31.30;6.70;;;;;;;-143.84;42.02;44818.66;5053493;28;20438;-85
2022/08/30 07:01:36;;;;;;;50.00;6.13;;;;;;;-143.84;42.33;44812.97;5054414;28;20477;-85
2022/08/30 07:04:04;;;;;;;27.67;5.40;;;;;;;-143.84;41.82;44811.06;5054239;28;20871;-84
2022/08/30 07:06:32;;;;;;;34.03;5.83;;;;;;;-143.84;41.59;44801.53;5053556;28;20469;-83
2022/08/30 07:09:01;;;;;;;50.23;5.50;;;;;;;-143.84;42.21;44830.09;5054066;28;20975;-83
2022/08/30 07:11:30;;;;;;;26.33;5.63;;;;;;;-143.84;41.51;44822.47;5054338;28;20446;-83
2022/08/30 07:13:58;;;;;;;25.17;5.33;;;;;;;-143.84;40.39;44776.78;5054308;28;20429;-83
2022/08/30 07:16:25;;;;;;;24.10;5.50;;;;;;;-143.84;39.18;44843.44;5053620;28;21213;-83
2022/08/30 07:18:53;;;;;;;17.67;4.43;;;;;;;-143.84;39.25;44792.00;5053695;28;20442;-83
2022/08/30 07:21:26;;;;;;;28.23;5.10;;;;;;;-143.84;39.26;44851.03;5053929;28;20500;-83
2022/08/30 07:23:55;;;;;;;28.03;5.60;;;;;;;-143.84;39.29;44832.00;5054159;28;21017;-83
2022/08/30 07:26:27;;;;;;;37.40;6.73;;;;;;;-143.84;38.70;44795.81;5053507;28;20947;-83
2022/08/30 07:28:54;;;;;;;51.17;7.40;;;;;;;-143.84;38.78;44822.47;5053688;28;20449;-83
2022/08/30 07:31:21;;;;;;;27.90;5.10;;;;;;;-143.84;38.37;44801.53;5053151;28;20433;-83
2022/08/30 07:33:49;;;;;;;30.93;6.60;;;;;;;-143.84;38.17;44809.16;5053245;28;20442;-83
2022/08/30 07:36:17;;;;;;;31.33;5.50;;;;;;;-143.84;38.92;44805.34;5053652;28;20441;-83
2022/08/30 07:38:46;;;;;;;31.30;6.00;;;;;;;-143.84;39.77;44790.13;5053504;28;20512;-83
2022/08/30 07:41:18;;;;;;;32.00;5.97;;;;;;;-143.84;37.67;44792.00;5053351;28;20474;-83
2022/08/30 07:43:47;;;;;;;38.43;6.40;;;;;;;-143.84;37.71;44784.41;5053136;28;20446;-83
2022/08/30 07:46:14;;;;;;;31.73;6.10;;;;;;;-143.84;37.64;44795.81;5053870;28;20798;-83
2022/08/30 07:48:42;;;;;;;40.17;6.63;;;;;;;-143.84;37.93;44771.06;5053248;28;20434;-82
2022/08/30 07:51:13;;;;;;;27.97;5.73;;;;;;;-143.84;38.99;44759.66;5053309;28;20825;-83
2022/08/30 07:53:40;;;;;;;40.53;5.40;;;;;;;-143.84;37.18;44799.63;5053068;28;20426;-82
2022/08/30 07:56:08;;;;;;;42.10;6.47;;;;;;;-143.84;35.82;44795.81;5053426;28;20967;-83
2022/08/30 07:58:36;;;;;;;32.97;6.33;;;;;;;-143.84;36.94;44801.53;5053666;28;20461;-83
2022/08/30 08:01:06;;;;;;;28.90;5.43;;;;;;;-143.84;34.45;44799.63;5054271;28;20450;-83
2022/08/30 08:03:34;;;;;;;25.50;5.07;;;;;;;-143.84;35.96;44780.59;5055102;28;20460;-83
2022/08/30 08:06:03;;;;;;;30.40;5.50;;;;;;;-143.84;36.46;44771.06;5061585;28;20485;-81
2022/08/30 08:08:31;;;;;;;20.57;4.63;;;;;;;-143.84;34.65;44776.78;5052909;28;20446;-83
2022/08/30 08:10:59;;;;;;;29.63;4.67;;;;;;;-143.84;35.09;44772.97;5052997;28;20508;-82
2022/08/30 08:13:26;;;;;;;19.13;4.27;;;;;;;-143.84;33.30;44782.50;5052923;28;20475;-81
2022/08/30 08:15:53;;;;;;;26.53;4.83;;;;;;;-143.84;32.86;44795.81;5053195;28;20442;-81
2022/08/30 08:18:22;;;;;;;26.73;4.33;;;;;;;-143.84;33.57;44774.88;5053061;28;20848;-81
2022/08/30 08:20:49;;;;;;;30.43;5.80;;;;;;;-143.84;32.33;44797.72;5053493;28;20430;-82
2022/08/30 08:23:16;;;;;;;23.43;5.00;;;;;;;-143.84;31.60;44780.59;5052378;28;20520;-82
2022/08/30 08:25:43;;;;;;;27.03;4.53;;;;;;;-143.84;31.38;44769.16;5052580;28;20998;-82
2022/08/30 08:28:11;;;;;;;16.70;4.00;;;;;;;-143.84;30.75;44750.13;5043005;28;20455;-82
2022/08/30 08:30:39;;;;;;;21.03;3.87;;;;;;;-143.84;31.28;44780.59;5046704;28;20445;-82
2022/08/30 08:33:07;;;;;;;25.10;5.07;;;;;;;-143.84;30.36;44799.63;5051869;28;21002;-82
2022/08/30 08:35:35;;;;;;;24.23;5.77;;;;;;;-143.84;29.30;44793.91;5044532;28;20483;-82
2022/08/30 08:38:03;;;;;;;16.30;4.33;;;;;;;-143.84;29.19;44765.34;5048978;28;20993;-82
2022/08/30 08:40:38;;;;;;;16.90;4.43;;;;;;;-143.84;29.38;44753.94;5046300;28;20461;-81
2022/08/30 08:43:12;;;;;;;17.60;4.40;;;;;;;-143.84;29.28;44757.75;5052079;28;20469;-82
2022/08/30 08:45:48;;;;;;;29.67;4.93;;;;;;;-143.84;29.13;44738.69;5052268;28;20791;-82
2022/08/30 08:48:29;;;;;;;20.13;3.93;;;;;;;-143.84;28.82;44733.00;5048429;28;20955;-82
2022/08/30 08:53:47;;;;;;;22.50;4.67;;;;;;;-143.84;29.60;44771.06;5045530;28;20445;-82
2022/08/30 08:56:17;;;;;;;21.17;5.90;;;;;;;-143.84;29.79;44757.75;5051774;28;20437;-82
2022/08/30 08:58:47;;;;;;;16.93;4.60;;;;;;;-143.84;30.07;44753.94;5034821;28;20443;-82
2022/08/30 09:01:16;;;;;;;27.17;5.73;;;;;;;-143.84;30.38;44771.06;5041100;28;21015;-80
2022/08/30 09:03:44;;;;;;;29.17;5.20;;;;;;;-143.84;31.59;44780.59;5031548;28;20443;-80
2022/08/30 09:06:24;;;;;;;34.07;5.40;;;;;;;-143.84;32.20;44757.75;5035038;28;21008;-80
2022/08/30 09:08:51;;;;;;;17.30;4.60;;;;;;;-143.84;31.63;44731.09;5032209;28;20508;-80
2022/08/30 09:11:25;;;;;;;43.47;5.33;;;;;;;-143.84;31.70;44744.41;5032172;28;20434;-80
2022/08/30 09:13:54;;;;;;;31.93;5.30;;;;;;;-143.84;31.43;44731.09;5031590;28;20463;-81
2022/08/30 09:16:56;;;;;;;36.37;5.00;;;;;;;-143.84;31.36;44746.31;5031386;28;20454;-80
2022/08/30 09:19:40;;;;;;;39.47;5.37;;;;;;;-143.84;32.05;44744.41;5045418;28;20449;-80
2022/08/30 09:22:26;;;;;;;25.40;5.30;;;;;;;-143.84;32.35;44765.34;5042857;28;20487;-80
2022/08/30 09:24:59;;;;;;;37.50;5.97;;;;;;;-143.84;33.54;44744.41;5032617;28;20469;-80
2022/08/30 09:27:31;;;;;;;28.47;5.20;;;;;;;-143.84;32.78;44776.78;5036748;28;20438;-79
2022/08/30 09:30:05;;;;;;;22.87;4.83;;;;;;;-143.84;33.31;44793.91;5039859;28;20446;-80
2022/08/30 09:32:36;;;;;;;28.03;6.30;;;;;;;-143.84;32.75;44786.31;5043634;28;20449;-80
2022/08/30 09:35:05;;;;;;;23.37;5.10;;;;;;;-143.84;34.71;44765.34;5051491;28;20442;-81
2022/08/30 09:37:38;;;;;;;22.90;5.33;;;;;;;-143.84;35.30;44755.84;5051304;28;20461;-80
2022/08/30 09:40:16;;;;;;;47.03;6.23;;;;;;;-143.84;35.03;44744.41;5051629;28;20442;-81
2022/08/30 09:43:00;;;;;;;30.07;6.77;;;;;;;-143.84;34.47;44786.31;5051783;28;21370;-81
2022/08/30 09:45:33;;;;;;;20.27;5.50;;;;;;;-143.84;35.09;44818.66;5051223;28;20437;-80
2022/08/30 09:48:01;;;;;;;30.27;6.13;;;;;;;-143.84;35.92;44805.34;5043585;28;20448;-80
2022/08/30 09:50:35;;;;;;;30.40;7.00;;;;;;;-143.84;36.60;44774.88;5043116;28;20831;-81
2022/08/30 09:53:10;;;;;;;37.30;6.00;;;;;;;-143.84;36.63;44782.50;5036296;28;20464;-81
2022/08/30 09:55:55;;;;;;;34.50;6.23;;;;;;;-143.84;36.73;44780.59;5037022;28;20550;-81
2022/08/30 09:58:38;;;;;;;32.10;7.00;;;;;;;-143.84;37.37;44774.88;5033993;28;20447;-79
2022/08/30 10:01:12;;;;;;;42.80;8.33;;;;;;;-143.84;38.33;44790.13;5033737;28;20959;-79
2022/08/30 10:03:44;;;;;;;26.67;6.47;;;;;;;-143.84;38.61;44792.00;5041091;28;20531;-79
2022/08/30 10:06:23;;;;;;;32.57;6.00;;;;;;;-143.84;39.87;44797.72;5036064;28;21054;-80
2022/08/30 10:09:01;;;;;;;23.77;5.10;;;;;;;-143.84;39.50;44807.25;5035497;28;20530;-80
2022/08/30 10:11:36;;;;;;;25.33;5.00;;;;;;;-143.84;38.40;44830.09;5026609;28;20462;-80
2022/08/30 10:14:17;;;;;;;23.27;6.00;;;;;;;-143.84;37.37;44769.16;5026773;28;20540;-80
2022/08/30 10:16:52;;;;;;;30.57;5.93;;;;;;;-143.84;36.84;44792.00;5028882;28;20521;-80
2022/08/30 10:19:31;;;;;;;16.93;4.90;;;;;;;-143.84;37.25;44782.50;5038374;28;20450;-80
2022/08/30 10:22:05;;;;;;;26.77;5.90;;;;;;;-143.84;36.47;44822.47;5034096;28;21018;-80
2022/08/30 10:24:39;;;;;;;20.17;4.73;;;;;;;-143.84;35.98;44793.91;5038091;28;20453;-80
2022/08/30 10:27:11;;;;;;;19.10;4.73;;;;;;;-143.84;36.21;44738.69;5043977;28;20960;-80
2022/08/30 10:29:43;;;;;;;35.57;5.53;;;;;;;-143.84;36.30;44805.34;5036521;28;20474;-80
2022/08/30 10:32:18;;;;;;;20.47;5.90;;;;;;;-143.84;35.80;44793.91;5041736;28;20452;-80
2022/08/30 10:34:51;;;;;;;21.80;5.60;;;;;;;-143.84;36.47;44774.88;5046249;28;20487;-80
2022/08/30 10:37:23;;;;;;;32.80;5.73;;;;;;;-143.84;36.51;44786.31;5044160;28;20926;-80
2022/08/30 10:39:57;;;;;;;22.40;5.53;;;;;;;-143.84;36.76;44797.72;5038420;28;20959;-80
2022/08/30 10:42:30;;;;;;;22.07;5.60;;;;;;;-143.84;38.09;44778.69;5040276;28;20551;-80
2022/08/30 10:45:03;;;;;;;24.23;6.53;;;;;;;-143.84;36.56;44780.59;5044982;28;20478;-80
2022/08/30 10:47:41;;;;;;;34.13;5.43;;;;;;;-143.84;37.36;44801.53;5054231;28;20441;-80
2022/08/30 10:50:14;;;;;;;32.40;5.63;;;;;;;-143.84;38.21;44805.34;5051815;28;20523;-80
2022/08/30 10:52:50;;;;;;;24.33;4.87;;;;;;;-143.84;38.64;44830.09;5048074;28;20464;-84
2022/08/30 10:55:24;;;;;;;21.00;5.30;;;;;;;-143.84;38.66;44795.81;5037663;28;20528;-80
2022/08/30 10:57:52;;;;;;;28.33;5.20;;;;;;;-143.84;38.51;44801.53;5033783;28;20442;-79
2022/08/30 11:00:26;;;;;;;28.37;5.30;;;;;;;-143.84;36.67;44795.81;5054514;28;20422;-79
2022/08/30 11:03:29;;;;;;;17.10;5.20;;;;;;;-143.84;38.01;44852.94;5043793;28;20542;-80
2022/08/30 11:06:25;;;;;;;20.80;6.33;;;;;;;-143.84;37.73;44818.66;5042175;28;20551;-80
2022/08/30 11:09:18;;;;;;;15.00;4.87;;;;;;;-143.84;36.25;44830.09;5033543;28;20449;-81
2022/08/30 11:12:04;;;;;;;15.70;4.50;;;;;;;-143.84;36.49;44826.28;5045952;28;20438;-80
2022/08/30 11:14:31;;;;;;;25.17;5.00;;;;;;;-143.84;35.48;44816.78;5054354;28;20437;-80
2022/08/30 11:17:01;;;;;;;19.17;4.50;;;;;;;-143.84;36.10;44824.38;5051124;28;20500;-80
2022/08/30 11:19:37;;;;;;;19.30;5.03;;;;;;;-143.84;36.22;44843.44;5041198;28;20549;-80
2022/08/30 11:22:14;;;;;;;19.00;4.60;;;;;;;-143.84;37.35;44826.28;5042809;28;20964;-80
2022/08/30 11:25:11;;;;;;;15.40;5.27;;;;;;;-143.84;36.48;44803.44;5042282;28;20442;-80